Time;durP1;ratioP1;P1;durP2;ratioP2;P2;SDS_P1;SDS_P2;PMS_P1;PMS_P2;Temp;Humidity;BMP_temperature;BMP_pressure;BME280_temperature;BME280_humidity;BME280_pressure;Samples;Min_cycle;Max_cycle;Signal;HPM_P1;HPM_P2
2022/09/18 00:00:01;;;;;;;5.30;2.30;;;;;22.00;100380.00;;;;2078925;28;20217;-53
2022/09/18 00:01:32;;;;;;;3.10;1.97;;;;;22.00;100380.00;;;;2075461;28;20274;-53
2022/09/18 00:02:32;;;;;;;3.63;1.90;;;;;21.90;100377.00;;;;2066185;28;20307;-53
2022/09/18 00:03:33;;;;;;;3.60;1.90;;;;;21.90;100380.00;;;;2086107;28;20726;-53
2022/09/18 00:04:33;;;;;;;3.23;2.00;;;;;21.90;100379.00;;;;2082943;28;20702;-53
2022/09/18 00:05:34;;;;;;;3.13;2.00;;;;;21.90;100386.00;;;;2078206;28;20726;-54
2022/09/18 00:06:37;;;;;;;4.40;2.20;;;;;21.90;100383.00;;;;2078649;28;20220;-53
2022/09/18 00:07:37;;;;;;;4.75;2.05;;;;;21.90;100394.00;;;;2077727;28;20217;-53
2022/09/18 00:08:37;;;;;;;3.63;2.07;;;;;21.90;100406.00;;;;2078524;28;20241;-53
2022/09/18 00:09:38;;;;;;;3.47;2.17;;;;;21.90;100390.00;;;;2078306;28;20300;-54
2022/09/18 00:10:39;;;;;;;3.20;1.67;;;;;21.90;100387.00;;;;2070356;28;20206;-54
2022/09/18 00:11:42;;;;;;;4.18;1.70;;;;;21.90;100382.00;;;;2070437;28;20223;-53
2022/09/18 00:12:42;;;;;;;1.92;1.30;;;;;21.90;100388.00;;;;2070681;28;20221;-53
2022/09/18 00:13:43;;;;;;;3.97;2.37;;;;;21.90;100390.00;;;;2070319;28;20214;-53
2022/09/18 00:14:43;;;;;;;10.10;1.70;;;;;21.90;100379.00;;;;2070706;28;20357;-53
2022/09/18 00:15:53;;;;;;;3.77;1.90;;;;;21.90;100387.00;;;;2070705;28;20222;-54
2022/09/18 00:16:53;;;;;;;2.35;1.60;;;;;21.90;100378.00;;;;2070565;28;20214;-54
2022/09/18 00:17:53;;;;;;;1.97;1.40;;;;;21.90;100392.00;;;;2069766;28;20322;-54
2022/09/18 00:18:54;;;;;;;3.27;1.67;;;;;21.90;100377.00;;;;2070302;28;20214;-54
2022/09/18 00:19:54;;;;;;;3.07;2.03;;;;;21.90;100375.00;;;;2070005;28;20214;-54
2022/09/18 00:20:54;;;;;;;4.50;2.03;;;;;21.90;100376.00;;;;2069960;28;20245;-55
2022/09/18 00:21:55;;;;;;;4.07;1.70;;;;;21.90;100393.00;;;;2070670;28;20217;-53
2022/09/18 00:22:55;;;;;;;3.83;1.70;;;;;21.90;100382.00;;;;2070519;28;20206;-54
2022/09/18 00:23:57;;;;;;;4.20;1.80;;;;;21.90;100399.00;;;;2070555;28;20627;-54
2022/09/18 00:24:57;;;;;;;2.40;1.40;;;;;21.90;100390.00;;;;2061501;28;20211;-53
2022/09/18 00:25:57;;;;;;;2.17;1.40;;;;;21.90;100387.00;;;;2061591;28;20652;-54
2022/09/18 00:26:57;;;;;;;2.87;1.40;;;;;21.90;100383.00;;;;2070383;28;20578;-53
2022/09/18 00:27:58;;;;;;;3.60;1.70;;;;;21.90;100376.00;;;;2069366;28;20648;-54
2022/09/18 00:28:58;;;;;;;3.57;1.87;;;;;21.90;100384.00;;;;2070177;28;20648;-54
2022/09/18 00:29:58;;;;;;;2.50;1.40;;;;;21.90;100384.00;;;;2070487;28;20218;-54
2022/09/18 00:31:04;;;;;;;2.70;1.30;;;;;21.90;100380.00;;;;2070366;28;20222;-54
2022/09/18 00:32:04;;;;;;;2.60;1.63;;;;;21.90;100379.00;;;;2063277;28;20226;-54
2022/09/18 00:33:04;;;;;;;3.20;1.70;;;;;21.90;100386.00;;;;2067930;28;20222;-54
2022/09/18 00:34:07;;;;;;;2.67;1.43;;;;;21.90;100378.00;;;;2070052;28;20237;-54
2022/09/18 00:35:07;;;;;;;2.38;1.50;;;;;21.90;100380.00;;;;2070481;28;20586;-54
2022/09/18 00:36:11;;;;;;;3.43;2.03;;;;;21.80;100377.00;;;;2070376;28;20233;-54
2022/09/18 00:37:11;;;;;;;2.65;1.60;;;;;21.80;100378.00;;;;2070184;28;20252;-54
2022/09/18 00:38:11;;;;;;;3.57;1.93;;;;;21.90;100374.00;;;;2074824;28;20209;-55
2022/09/18 00:39:12;;;;;;;2.60;1.30;;;;;21.90;100374.00;;;;2078303;28;20213;-54
2022/09/18 00:40:12;;;;;;;3.47;1.70;;;;;21.90;100379.00;;;;2076399;28;20268;-54
2022/09/18 00:41:23;;;;;;;3.23;1.73;;;;;21.80;100371.00;;;;2076659;28;20809;-54
2022/09/18 00:42:23;;;;;;;2.42;1.27;;;;;21.80;100369.00;;;;2077915;28;20594;-55
2022/09/18 00:43:25;;;;;;;2.10;1.30;;;;;21.80;100375.00;;;;2074139;28;20253;-53
2022/09/18 00:44:41;;;;;;;3.25;1.58;;;;;21.80;100378.00;;;;2077026;28;20422;-53
2022/09/18 00:45:42;;;;;;;3.63;1.30;;;;;21.80;100353.00;;;;2076976;28;20212;-54
2022/09/18 00:46:42;;;;;;;1.93;1.00;;;;;21.80;100376.00;;;;2077057;28;20229;-54
2022/09/18 00:47:45;;;;;;;2.80;1.43;;;;;21.90;100376.00;;;;2067902;28;20226;-54
2022/09/18 00:49:03;;;;;;;2.85;1.45;;;;;21.90;100384.00;;;;2073847;28;20662;-54
2022/09/18 00:50:09;;;;;;;3.90;1.77;;;;;21.80;100376.00;;;;2081927;28;20278;-54
2022/09/18 00:51:10;;;;;;;3.00;1.60;;;;;20.80;100350.00;;;;2078461;28;20252;-53
2022/09/18 00:52:10;;;;;;;2.70;1.30;;;;;21.80;100380.00;;;;2063396;28;20214;-54
2022/09/18 00:53:11;;;;;;;6.17;1.80;;;;;21.90;100381.00;;;;2052994;28;20622;-54
2022/09/18 00:54:18;;;;;;;3.10;1.40;;;;;21.90;100382.00;;;;2068239;28;20221;-54
2022/09/18 00:55:22;;;;;;;1.98;1.15;;;;;21.80;100374.00;;;;2061494;28;20226;-55
2022/09/18 00:56:23;;;;;;;5.32;1.42;;;;;21.80;100372.00;;;;2061358;28;20632;-54
2022/09/18 00:57:26;;;;;;;5.20;1.50;;;;;21.80;100370.00;;;;2068227;28;20218;-54
2022/09/18 00:58:26;;;;;;;4.88;1.50;;;;;21.80;100369.00;;;;2069530;28;20659;-54
2022/09/18 00:59:33;;;;;;;5.07;1.73;;;;;21.80;100376.00;;;;2069100;28;20214;-55
2022/09/18 01:00:34;;;;;;;2.25;1.20;;;;;21.80;100381.00;;;;2070555;28;20210;-55
2022/09/18 01:01:34;;;;;;;4.40;1.47;;;;;21.80;100384.00;;;;2078567;28;20210;-54
2022/09/18 01:02:34;;;;;;;4.70;1.23;;;;;21.80;100388.00;;;;2078918;28;20217;-55
2022/09/18 01:03:35;;;;;;;4.83;1.47;;;;;21.80;100388.00;;;;2078941;28;20218;-54
2022/09/18 01:04:35;;;;;;;3.23;1.33;;;;;21.80;100380.00;;;;2079728;28;20244;-54
2022/09/18 01:05:48;;;;;;;4.43;1.30;;;;;21.70;100383.00;;;;2079882;28;20252;-54
2022/09/18 01:06:52;;;;;;;3.78;1.40;;;;;21.80;100385.00;;;;2070668;28;20210;-54
2022/09/18 01:08:19;;;;;;;2.97;1.20;;;;;21.70;100380.00;;;;2070845;28;20241;-54
2022/09/18 01:09:41;;;;;;;3.00;1.25;;;;;21.70;100385.00;;;;2078926;28;20216;-55
2022/09/18 01:10:41;;;;;;;5.32;1.40;;;;;21.70;100384.00;;;;2073930;28;20209;-53
2022/09/18 01:11:46;;;;;;;3.87;1.27;;;;;21.70;100385.00;;;;2072573;28;20309;-54
2022/09/18 01:13:00;;;;;;;3.80;1.20;;;;;21.70;100387.00;;;;2067354;28;20293;-54
2022/09/18 01:14:22;;;;;;;2.75;1.40;;;;;21.70;100384.00;;;;2074842;28;20327;-54
2022/09/18 01:15:51;;;;;;;6.07;1.42;;;;;21.70;100382.00;;;;2078821;28;20220;-54
2022/09/18 01:16:56;;;;;;;5.18;1.38;;;;;21.70;100384.00;;;;2078688;28;20231;-54
2022/09/18 01:18:05;;;;;;;4.32;1.25;;;;;21.70;100367.00;;;;2070855;28;20218;-54
2022/09/18 01:19:30;;;;;;;5.43;1.70;;;;;21.70;100377.00;;;;2071947;28;20573;-54
2022/09/18 01:21:11;;;;;;;2.30;1.10;;;;;21.70;100370.00;;;;2069566;28;20209;-54
2022/09/18 01:22:45;;;;;;;5.10;1.60;;;;;21.70;100384.00;;;;2070812;28;20212;-54
2022/09/18 01:24:13;;;;;;;3.45;1.38;;;;;21.70;100386.00;;;;2075100;28;20210;-54
2022/09/18 01:25:17;;;;;;;2.40;1.10;;;;;21.70;100385.00;;;;2077803;28;20228;-54
2022/09/18 01:26:39;;;;;;;3.15;1.20;;;;;21.70;100390.00;;;;2075842;28;20217;-54
2022/09/18 01:27:56;;;;;;;1.70;0.95;;;;;21.70;100389.00;;;;2078585;28;20606;-54
2022/09/18 01:29:26;;;;;;;2.22;1.05;;;;;21.60;100383.00;;;;2078338;28;20213;-54
2022/09/18 01:30:27;;;;;;;3.70;1.27;;;;;21.60;100384.00;;;;2074705;28;20217;-54
2022/09/18 01:31:29;;;;;;;2.57;1.30;;;;;21.60;100378.00;;;;2072851;28;20229;-54
2022/09/18 01:32:37;;;;;;;4.22;1.23;;;;;21.70;100353.00;;;;2071140;28;20710;-54
2022/09/18 01:33:40;;;;;;;2.70;1.55;;;;;21.60;100382.00;;;;2070922;28;20212;-54
2022/09/18 01:35:00;;;;;;;4.60;1.40;;;;;21.60;100374.00;;;;2063821;28;20297;-54
2022/09/18 01:36:02;;;;;;;3.33;1.13;;;;;21.60;100377.00;;;;2073033;28;20230;-54
2022/09/18 01:37:29;;;;;;;2.17;1.00;;;;;21.70;100371.00;;;;2070938;28;20632;-54
2022/09/18 01:38:35;;;;;;;2.08;1.05;;;;;21.30;100373.00;;;;2077558;28;20594;-54
2022/09/18 01:39:45;;;;;;;4.25;1.42;;;;;21.60;100373.00;;;;2063291;28;20215;-54
2022/09/18 01:41:03;;;;;;;3.08;1.30;;;;;21.60;100378.00;;;;2069152;28;20217;-54
2022/09/18 01:42:04;;;;;;;3.25;1.48;;;;;21.60;100346.00;;;;2065302;28;20226;-55
2022/09/18 01:43:07;;;;;;;2.73;1.30;;;;;21.60;100369.00;;;;2070764;28;20218;-54
2022/09/18 01:44:13;;;;;;;2.40;1.20;;;;;21.60;100377.00;;;;2069450;28;20207;-54
2022/09/18 01:45:19;;;;;;;3.10;1.27;;;;;21.60;100371.00;;;;2063546;28;20739;-54
2022/09/18 01:46:20;;;;;;;2.60;1.10;;;;;21.60;100365.00;;;;2056315;28;20791;-54
2022/09/18 01:47:20;;;;;;;2.90;1.10;;;;;21.60;100370.00;;;;2053859;28;20251;-54
2022/09/18 01:48:26;;;;;;;2.92;1.25;;;;;21.60;100367.00;;;;2054637;28;20592;-54
2022/09/18 01:49:35;;;;;;;3.05;1.25;;;;;21.60;100370.00;;;;2061141;28;20219;-54
2022/09/18 01:50:38;;;;;;;3.25;1.25;;;;;21.60;100367.00;;;;2067112;28;20284;-54
2022/09/18 01:51:49;;;;;;;3.42;1.40;;;;;21.60;100370.00;;;;2070755;28;20234;-54
2022/09/18 01:53:02;;;;;;;2.40;1.40;;;;;21.60;100393.00;;;;2067302;28;20237;-54
2022/09/18 01:54:06;;;;;;;2.92;1.25;;;;;21.60;100363.00;;;;2066775;28;20211;-54
2022/09/18 01:55:10;;;;;;;1.92;1.20;;;;;21.60;100354.00;;;;2062449;28;20261;-54
2022/09/18 01:56:15;;;;;;;3.25;1.40;;;;;21.60;100351.00;;;;2071658;28;20269;-54
2022/09/18 01:57:18;;;;;;;3.58;1.10;;;;;21.60;100356.00;;;;2062833;28;20215;-54
2022/09/18 01:58:19;;;;;;;2.45;1.20;;;;;21.60;100356.00;;;;2071280;28;20218;-54
2022/09/18 01:59:23;;;;;;;4.22;1.80;;;;;21.50;100358.00;;;;2070757;28;20210;-54
2022/09/18 02:00:24;;;;;;;3.10;1.20;;;;;21.60;100336.00;;;;2071293;28;20218;-54
2022/09/18 02:01:24;;;;;;;2.57;1.33;;;;;21.50;100351.00;;;;2078306;28;20222;-54
2022/09/18 02:02:54;;;;;;;2.50;1.23;;;;;21.60;100332.00;;;;2070594;28;20681;-54
2022/09/18 02:03:56;;;;;;;2.72;1.25;;;;;21.60;100362.00;;;;2081810;28;20217;-54
2022/09/18 02:04:58;;;;;;;2.72;1.10;;;;;21.50;100361.00;;;;2077554;28;20660;-54
2022/09/18 02:06:05;;;;;;;3.17;1.33;;;;;21.60;100370.00;;;;2070157;28;20211;-54
2022/09/18 02:07:13;;;;;;;3.15;1.50;;;;;21.50;100362.00;;;;2054863;28;20213;-54
2022/09/18 02:08:22;;;;;;;3.25;1.30;;;;;21.50;100360.00;;;;2060450;28;20211;-54
2022/09/18 02:09:22;;;;;;;3.60;1.10;;;;;21.50;100359.00;;;;2059342;28;20952;-54
2022/09/18 02:10:23;;;;;;;5.30;1.30;;;;;21.50;100358.00;;;;2070021;28;20324;-54
2022/09/18 02:11:23;;;;;;;4.20;1.30;;;;;21.50;100358.00;;;;2069662;28;20276;-54
2022/09/18 02:12:23;;;;;;;3.50;1.47;;;;;21.50;100358.00;;;;2075667;28;20290;-54
2022/09/18 02:13:27;;;;;;;2.30;1.00;;;;;21.50;100369.00;;;;2069987;28;20222;-54
2022/09/18 02:14:31;;;;;;;2.42;1.05;;;;;21.50;100356.00;;;;2066616;28;20316;-54
2022/09/18 02:15:32;;;;;;;2.95;1.30;;;;;21.50;100332.00;;;;2078834;28;20638;-54
2022/09/18 02:16:43;;;;;;;2.50;1.38;;;;;21.50;100363.00;;;;2066517;28;20641;-54
2022/09/18 02:17:49;;;;;;;4.05;1.35;;;;;21.50;100358.00;;;;2068361;28;20241;-54
2022/09/18 02:18:51;;;;;;;1.98;1.13;;;;;21.50;100367.00;;;;2070150;28;20218;-54
2022/09/18 02:20:00;;;;;;;3.78;1.42;;;;;21.50;100357.00;;;;2060441;28;20214;-54
2022/09/18 02:21:01;;;;;;;4.43;1.55;;;;;21.50;100359.00;;;;2077143;28;20213;-55
2022/09/18 02:22:03;;;;;;;3.23;1.33;;;;;21.50;100335.00;;;;2078085;28;20267;-54
2022/09/18 02:23:05;;;;;;;2.95;1.10;;;;;21.50;100360.00;;;;2078774;28;20209;-55
2022/09/18 02:24:07;;;;;;;4.47;1.35;;;;;21.50;100366.00;;;;2079034;28;20212;-54
2022/09/18 02:25:07;;;;;;;4.35;1.50;;;;;21.50;100364.00;;;;2079004;28;20570;-54
2022/09/18 02:26:08;;;;;;;2.60;1.30;;;;;21.50;100345.00;;;;2078378;28;20217;-54
2022/09/18 02:27:09;;;;;;;3.73;1.20;;;;;21.50;100361.00;;;;2070404;28;20555;-54
2022/09/18 02:28:09;;;;;;;2.73;1.57;;;;;21.50;100359.00;;;;2077755;28;20228;-54
2022/09/18 02:29:11;;;;;;;3.03;1.40;;;;;21.50;100359.00;;;;2070475;28;20225;-54
2022/09/18 02:30:11;;;;;;;5.15;1.48;;;;;21.50;100350.00;;;;2062624;28;20687;-54
2022/09/18 02:31:11;;;;;;;2.67;1.17;;;;;21.40;100362.00;;;;2070523;28;20217;-54
2022/09/18 02:32:12;;;;;;;3.60;1.60;;;;;21.50;100346.00;;;;2078328;28;20213;-54
2022/09/18 02:33:29;;;;;;;2.03;1.30;;;;;21.50;100343.00;;;;2079398;28;20690;-54
2022/09/18 02:34:30;;;;;;;4.28;1.42;;;;;21.50;100313.00;;;;2078625;28;20886;-55
2022/09/18 02:35:36;;;;;;;3.30;1.37;;;;;21.50;100341.00;;;;2069424;28;20344;-54
2022/09/18 02:37:18;;;;;;;2.92;1.35;;;;;21.50;100342.00;;;;2070935;28;20277;-55
2022/09/18 02:38:24;;;;;;;2.58;1.20;;;;;21.50;100336.00;;;;2074840;28;20543;-54
2022/09/18 02:39:39;;;;;;;4.45;1.30;;;;;21.40;100336.00;;;;2069617;28;20265;-54
2022/09/18 02:40:53;;;;;;;2.80;1.33;;;;;21.50;100331.00;;;;2072738;28;20217;-54
2022/09/18 02:42:03;;;;;;;2.70;1.35;;;;;21.50;100346.00;;;;2078753;28;20216;-54
2022/09/18 02:43:28;;;;;;;2.65;1.10;;;;;21.40;100345.00;;;;2077951;28;20718;-55
2022/09/18 02:44:47;;;;;;;3.95;1.50;;;;;21.50;100341.00;;;;2078494;28;20629;-54
2022/09/18 02:46:08;;;;;;;2.80;1.30;;;;;21.50;100352.00;;;;2077647;28;20221;-54
2022/09/18 02:47:18;;;;;;;3.50;1.60;;;;;21.50;100349.00;;;;2070694;28;20604;-54
2022/09/18 02:48:37;;;;;;;4.30;1.60;;;;;21.40;100346.00;;;;2069239;28;20218;-54
2022/09/18 02:49:45;;;;;;;3.78;1.30;;;;;21.50;100346.00;;;;2075255;28;20209;-55
2022/09/18 02:50:56;;;;;;;3.20;1.40;;;;;21.40;100341.00;;;;2078836;28;20210;-54
2022/09/18 02:52:01;;;;;;;2.90;1.35;;;;;21.50;100314.00;;;;2077891;28;20226;-54
2022/09/18 02:53:24;;;;;;;2.92;1.30;;;;;21.40;100340.00;;;;2071492;28;20234;-54
2022/09/18 02:54:52;;;;;;;4.15;1.95;;;;;21.40;100343.00;;;;2072175;28;20244;-54
2022/09/18 02:56:28;;;;;;;3.63;1.45;;;;;21.40;100347.00;;;;2069020;28;20308;-54
2022/09/18 02:57:51;;;;;;;2.47;1.30;;;;;21.40;100350.00;;;;2077795;28;20213;-54
2022/09/18 02:59:07;;;;;;;4.25;1.80;;;;;21.40;100342.00;;;;2070157;28;20730;-54
2022/09/18 03:00:12;;;;;;;3.50;1.60;;;;;21.40;100345.00;;;;2075024;28;20713;-54
2022/09/18 03:01:13;;;;;;;2.75;1.10;;;;;21.40;100346.00;;;;2070786;28;20253;-54
2022/09/18 03:02:14;;;;;;;5.45;1.88;;;;;21.40;100341.00;;;;2062579;28;20211;-54
2022/09/18 03:03:14;;;;;;;2.50;1.30;;;;;21.40;100340.00;;;;2070418;28;20216;-54
2022/09/18 03:04:19;;;;;;;2.60;1.37;;;;;21.40;100343.00;;;;2070025;28;20217;-54
2022/09/18 03:05:19;;;;;;;5.30;1.50;;;;;21.40;100340.00;;;;2070894;28;20271;-54
2022/09/18 03:06:19;;;;;;;2.50;1.47;;;;;21.40;100339.00;;;;2079098;28;20312;-54
2022/09/18 03:07:20;;;;;;;3.93;1.60;;;;;21.40;100337.00;;;;2078302;28;20209;-54
2022/09/18 03:08:20;;;;;;;4.37;1.50;;;;;21.40;100331.00;;;;2078934;28;20216;-54
2022/09/18 03:09:21;;;;;;;3.87;1.50;;;;;21.40;100333.00;;;;2078880;28;20216;-54
2022/09/18 03:10:21;;;;;;;2.97;1.50;;;;;21.40;100322.00;;;;2078817;28;20589;-54
2022/09/18 03:11:21;;;;;;;3.50;1.40;;;;;21.40;100333.00;;;;2072856;28;20706;-55
2022/09/18 03:12:22;;;;;;;3.57;1.40;;;;;21.40;100323.00;;;;2071055;28;20696;-54
2022/09/18 03:13:22;;;;;;;3.30;1.53;;;;;21.40;100331.00;;;;2071101;28;20218;-54
2022/09/18 03:14:22;;;;;;;3.00;1.40;;;;;21.40;100333.00;;;;2071110;28;20301;-54
2022/09/18 03:15:23;;;;;;;2.87;1.10;;;;;21.40;100331.00;;;;2070865;28;20252;-54
2022/09/18 03:16:23;;;;;;;2.00;1.17;;;;;21.40;100320.00;;;;2070874;28;20218;-55
2022/09/18 03:17:23;;;;;;;2.87;1.50;;;;;21.40;100335.00;;;;2070015;28;20213;-54
2022/09/18 03:18:24;;;;;;;2.63;1.60;;;;;21.40;100331.00;;;;2070829;28;20922;-54
2022/09/18 03:19:24;;;;;;;3.90;1.50;;;;;21.40;100323.00;;;;2070845;28;20210;-54
2022/09/18 03:20:24;;;;;;;2.57;1.37;;;;;21.40;100336.00;;;;2070212;28;20210;-53
2022/09/18 03:21:25;;;;;;;3.00;1.80;;;;;21.40;100334.00;;;;2069974;28;20218;-54
2022/09/18 03:22:26;;;;;;;2.90;1.65;;;;;21.40;100330.00;;;;2075478;28;20213;-54
2022/09/18 03:23:27;;;;;;;2.70;1.57;;;;;21.40;100317.00;;;;2078764;28;20214;-54
2022/09/18 03:24:27;;;;;;;2.47;1.40;;;;;21.40;100333.00;;;;2076513;28;20221;-54
2022/09/18 03:25:27;;;;;;;2.67;1.43;;;;;21.40;100326.00;;;;2075317;28;20280;-54
2022/09/18 03:26:28;;;;;;;3.70;1.80;;;;;21.40;100334.00;;;;2074705;28;20248;-54
2022/09/18 03:27:28;;;;;;;3.03;1.80;;;;;21.40;100321.00;;;;2069912;28;20242;-54
2022/09/18 03:28:31;;;;;;;2.27;1.40;;;;;21.40;100319.00;;;;2070859;28;20214;-54
2022/09/18 03:29:32;;;;;;;3.00;1.35;;;;;21.40;100331.00;;;;2070707;28;20218;-54
2022/09/18 03:30:33;;;;;;;3.17;1.63;;;;;21.40;100322.00;;;;2070795;28;20836;-54
2022/09/18 03:31:33;;;;;;;2.70;1.40;;;;;21.40;100333.00;;;;2070698;28;20230;-54
2022/09/18 03:32:33;;;;;;;5.07;1.67;;;;;21.30;100325.00;;;;2070799;28;20268;-54
2022/09/18 03:33:34;;;;;;;2.97;1.60;;;;;21.40;100321.00;;;;2070236;28;20222;-54
2022/09/18 03:34:34;;;;;;;2.83;1.50;;;;;21.40;100320.00;;;;2070699;28;20219;-54
2022/09/18 03:35:34;;;;;;;2.53;1.70;;;;;21.40;100334.00;;;;2070703;28;20233;-54
2022/09/18 03:36:35;;;;;;;2.67;1.60;;;;;21.40;100331.00;;;;2070959;28;20238;-53
2022/09/18 03:37:35;;;;;;;3.20;1.67;;;;;21.40;100323.00;;;;2069798;28;20301;-54
2022/09/18 03:38:39;;;;;;;2.17;1.53;;;;;21.40;100324.00;;;;2070714;28;20214;-54
2022/09/18 03:39:40;;;;;;;2.85;1.80;;;;;21.40;100325.00;;;;2070373;28;20221;-55
2022/09/18 03:40:44;;;;;;;2.60;1.70;;;;;21.40;100324.00;;;;2069321;28;20253;-56
2022/09/18 03:41:44;;;;;;;5.05;1.77;;;;;21.40;100322.00;;;;2070768;28;20694;-54
2022/09/18 03:42:44;;;;;;;2.00;1.40;;;;;21.40;100331.00;;;;2070602;28;20218;-54
2022/09/18 03:43:45;;;;;;;1.90;1.43;;;;;21.40;100324.00;;;;2070363;28;20211;-54
2022/09/18 03:44:45;;;;;;;2.83;1.57;;;;;21.40;100324.00;;;;2070739;28;20210;-54
2022/09/18 03:45:46;;;;;;;3.73;1.77;;;;;21.30;100349.00;;;;2070587;28;20227;-54
2022/09/18 03:46:46;;;;;;;3.50;1.40;;;;;21.30;100331.00;;;;2070907;28;20210;-54
2022/09/18 03:47:47;;;;;;;3.27;1.60;;;;;21.40;100335.00;;;;2069065;28;20698;-54
2022/09/18 03:48:51;;;;;;;3.72;1.70;;;;;21.40;100335.00;;;;2070736;28;20225;-54
2022/09/18 03:49:51;;;;;;;2.65;1.55;;;;;21.30;100307.00;;;;2070538;28;20214;-53
2022/09/18 03:50:51;;;;;;;4.00;1.77;;;;;21.30;100330.00;;;;2070668;28;20252;-53
2022/09/18 03:51:52;;;;;;;2.53;1.70;;;;;21.30;100320.00;;;;2072991;28;20690;-53
2022/09/18 03:52:52;;;;;;;2.90;1.57;;;;;21.30;100331.00;;;;2075358;28;20221;-53
2022/09/18 03:53:52;;;;;;;3.87;1.77;;;;;21.30;100325.00;;;;2078690;28;20209;-53
2022/09/18 03:54:53;;;;;;;3.60;1.90;;;;;21.30;100324.00;;;;2077498;28;20226;-53
2022/09/18 03:55:54;;;;;;;3.25;1.50;;;;;21.30;100325.00;;;;2077775;28;20340;-53
2022/09/18 03:56:54;;;;;;;2.30;1.70;;;;;21.30;100320.00;;;;2078125;28;20267;-53
2022/09/18 03:57:56;;;;;;;2.60;1.40;;;;;21.30;100322.00;;;;2077872;28;20237;-53
2022/09/18 03:58:56;;;;;;;4.95;2.00;;;;;21.30;100314.00;;;;2076945;28;20205;-53
2022/09/18 03:59:56;;;;;;;2.77;1.70;;;;;21.30;100337.00;;;;2078554;28;20217;-53
2022/09/18 04:00:57;;;;;;;4.10;1.90;;;;;21.30;100316.00;;;;2078782;28;20213;-53
2022/09/18 04:01:57;;;;;;;4.20;2.00;;;;;21.30;100320.00;;;;2078905;28;20201;-53
2022/09/18 04:02:57;;;;;;;3.20;1.60;;;;;21.30;100318.00;;;;2078904;28;20292;-53
2022/09/18 04:03:58;;;;;;;2.93;1.53;;;;;21.30;100313.00;;;;2078875;28;20212;-53
2022/09/18 04:04:58;;;;;;;3.20;1.70;;;;;21.30;100318.00;;;;2073344;28;20225;-53
2022/09/18 04:05:59;;;;;;;3.33;1.70;;;;;21.30;100321.00;;;;2078503;28;20255;-53
2022/09/18 04:06:59;;;;;;;2.80;1.77;;;;;21.30;100324.00;;;;2078866;28;20213;-53
2022/09/18 04:08:00;;;;;;;4.13;1.70;;;;;21.30;100315.00;;;;2077936;28;20216;-53
2022/09/18 04:09:02;;;;;;;3.80;1.90;;;;;21.30;100324.00;;;;2078560;28;20224;-53
2022/09/18 04:10:02;;;;;;;3.57;1.70;;;;;21.30;100325.00;;;;2077045;28;20201;-53
2022/09/18 04:11:04;;;;;;;3.13;1.97;;;;;21.30;100323.00;;;;2070616;28;20241;-53
2022/09/18 04:12:04;;;;;;;2.30;1.73;;;;;21.30;100324.00;;;;2070445;28;20236;-53
2022/09/18 04:13:05;;;;;;;3.20;1.53;;;;;21.30;100316.00;;;;2070488;28;20276;-53
2022/09/18 04:14:05;;;;;;;4.53;1.77;;;;;21.30;100334.00;;;;2070644;28;20222;-53
2022/09/18 04:15:06;;;;;;;2.77;1.73;;;;;21.30;100330.00;;;;2074215;28;20240;-53
2022/09/18 04:16:06;;;;;;;3.37;1.67;;;;;21.30;100322.00;;;;2077847;28;20251;-53
2022/09/18 04:17:06;;;;;;;3.00;2.23;;;;;21.30;100318.00;;;;2078509;28;20451;-53
2022/09/18 04:18:07;;;;;;;2.23;1.70;;;;;21.30;100299.00;;;;2078008;28;20463;-53
2022/09/18 04:19:07;;;;;;;3.73;1.60;;;;;21.20;100318.00;;;;2078729;28;20228;-53
2022/09/18 04:20:08;;;;;;;3.60;1.90;;;;;21.20;100308.00;;;;2078257;28;20257;-53
2022/09/18 04:21:08;;;;;;;1.87;1.60;;;;;21.20;100310.00;;;;2072667;28;20240;-53
2022/09/18 04:22:08;;;;;;;2.47;1.53;;;;;21.20;100306.00;;;;2070110;28;20217;-53
2022/09/18 04:23:11;;;;;;;3.60;1.60;;;;;21.30;100306.00;;;;2070928;28;20214;-53
2022/09/18 04:24:11;;;;;;;2.13;1.85;;;;;21.30;100312.00;;;;2078670;28;20220;-53
2022/09/18 04:25:12;;;;;;;3.47;1.80;;;;;21.30;100318.00;;;;2078277;28;20733;-53
2022/09/18 04:26:12;;;;;;;2.90;1.87;;;;;21.30;100318.00;;;;2076460;28;20828;-53
2022/09/18 04:27:13;;;;;;;4.57;1.80;;;;;21.30;100322.00;;;;2071167;28;21301;-53
2022/09/18 04:28:14;;;;;;;2.65;1.70;;;;;21.30;100323.00;;;;2077696;28;20269;-53
2022/09/18 04:29:14;;;;;;;3.73;2.03;;;;;21.30;100152.00;;;;2076269;28;21140;-54
2022/09/18 04:30:14;;;;;;;3.70;1.57;;;;;21.30;100322.00;;;;2069908;28;20749;-53
2022/09/18 04:31:15;;;;;;;3.00;1.83;;;;;21.30;100313.00;;;;2069464;28;20557;-53
2022/09/18 04:32:15;;;;;;;2.70;1.87;;;;;21.30;100322.00;;;;2074507;28;20217;-53
2022/09/18 04:33:16;;;;;;;3.57;2.10;;;;;21.30;100322.00;;;;2077743;28;20217;-53
2022/09/18 04:34:19;;;;;;;2.80;1.93;;;;;21.30;100324.00;;;;2078055;28;20213;-53
2022/09/18 04:35:19;;;;;;;2.53;2.10;;;;;21.30;100318.00;;;;2077992;28;20243;-54
2022/09/18 04:36:20;;;;;;;2.70;2.17;;;;;21.30;100320.00;;;;2080158;28;20205;-53
2022/09/18 04:37:20;;;;;;;4.47;1.63;;;;;21.30;100316.00;;;;2073410;28;20206;-53
2022/09/18 04:38:26;;;;;;;2.87;2.03;;;;;21.20;100316.00;;;;2071306;28;20256;-53
2022/09/18 04:39:29;;;;;;;3.60;1.60;;;;;21.30;100321.00;;;;2076821;28;20260;-53
2022/09/18 04:40:30;;;;;;;3.72;2.00;;;;;21.20;100314.00;;;;2079499;28;20694;-53
2022/09/18 04:41:30;;;;;;;2.80;1.77;;;;;21.30;100317.00;;;;2078632;28;20225;-53
2022/09/18 04:42:31;;;;;;;3.07;1.93;;;;;21.30;100326.00;;;;2079106;28;20456;-53
2022/09/18 04:43:31;;;;;;;2.63;1.77;;;;;21.30;100320.00;;;;2080275;28;20217;-53
2022/09/18 04:44:31;;;;;;;3.10;1.60;;;;;21.20;100322.00;;;;2079348;28;20248;-53
2022/09/18 04:45:31;;;;;;;2.50;1.60;;;;;21.20;100331.00;;;;2079300;28;20217;-54
2022/09/18 04:46:32;;;;;;;3.50;1.90;;;;;21.20;100326.00;;;;2079441;28;20209;-53
2022/09/18 04:47:32;;;;;;;2.60;1.40;;;;;21.20;100321.00;;;;2072324;28;20501;-53
2022/09/18 04:48:32;;;;;;;4.17;2.00;;;;;21.20;100325.00;;;;2080301;28;20213;-53
2022/09/18 04:49:33;;;;;;;2.17;1.87;;;;;21.20;100325.00;;;;2080209;28;20271;-53
2022/09/18 04:50:33;;;;;;;2.50;1.57;;;;;21.20;100325.00;;;;2072685;28;20215;-53
2022/09/18 04:51:34;;;;;;;2.50;1.70;;;;;21.20;100326.00;;;;2076650;28;20287;-53
2022/09/18 04:52:34;;;;;;;2.87;2.03;;;;;21.20;100316.00;;;;2080061;28;20308;-53
2022/09/18 04:53:36;;;;;;;3.37;1.50;;;;;21.20;100325.00;;;;2079978;28;20228;-53
2022/09/18 04:54:37;;;;;;;2.40;1.60;;;;;21.20;100337.00;;;;2079904;28;20219;-53
2022/09/18 04:55:38;;;;;;;2.57;1.90;;;;;21.20;100321.00;;;;2071976;28;20952;-53
2022/09/18 04:56:39;;;;;;;2.15;1.48;;;;;21.20;100315.00;;;;2071991;28;20756;-53
2022/09/18 04:57:40;;;;;;;3.00;1.90;;;;;21.20;100310.00;;;;2071324;28;20288;-53
2022/09/18 04:58:40;;;;;;;3.70;1.87;;;;;21.20;100318.00;;;;2075456;28;20206;-53
2022/09/18 04:59:41;;;;;;;3.00;1.93;;;;;21.20;100314.00;;;;2080016;28;20326;-53
2022/09/18 05:00:41;;;;;;;2.23;1.60;;;;;21.20;100314.00;;;;2079709;28;20261;-53
2022/09/18 05:01:41;;;;;;;2.90;1.83;;;;;21.20;100309.00;;;;2079123;28;20224;-53
2022/09/18 05:02:42;;;;;;;2.97;1.63;;;;;21.20;100308.00;;;;2072807;28;20264;-53
2022/09/18 05:03:42;;;;;;;2.97;1.60;;;;;21.20;100303.00;;;;2072064;28;20222;-53
2022/09/18 05:04:42;;;;;;;5.53;2.00;;;;;21.20;100309.00;;;;2071942;28;20214;-53
2022/09/18 05:05:43;;;;;;;5.43;1.80;;;;;21.20;100306.00;;;;2071857;28;20245;-53
2022/09/18 05:06:43;;;;;;;3.10;1.73;;;;;21.20;100320.00;;;;2071702;28;20588;-53
2022/09/18 05:07:43;;;;;;;2.47;1.70;;;;;21.20;100310.00;;;;2070942;28;20221;-53
2022/09/18 05:08:44;;;;;;;2.80;1.90;;;;;21.20;100315.00;;;;2071867;28;20222;-53
2022/09/18 05:09:44;;;;;;;4.30;1.63;;;;;21.20;100312.00;;;;2071737;28;20329;-53
2022/09/18 05:10:45;;;;;;;2.57;1.57;;;;;21.20;100323.00;;;;2071617;28;20561;-53
2022/09/18 05:11:45;;;;;;;4.37;1.90;;;;;21.20;100311.00;;;;2075654;28;20229;-53
2022/09/18 05:12:47;;;;;;;5.97;1.93;;;;;21.20;100314.00;;;;2080175;28;20583;-53
2022/09/18 05:13:47;;;;;;;2.78;1.95;;;;;21.20;100310.00;;;;2080021;28;20697;-53
2022/09/18 05:14:47;;;;;;;3.03;1.57;;;;;21.20;100322.00;;;;2079537;28;20305;-52
2022/09/18 05:15:48;;;;;;;3.43;1.57;;;;;21.20;100312.00;;;;2079889;28;20703;-53
2022/09/18 05:16:48;;;;;;;2.47;1.60;;;;;21.20;100306.00;;;;2075024;28;20222;-53